sensor_id;sensor_type;location;lat;lon;timestamp;P1;durP1;ratioP1;P2;durP2;ratioP2
10232;SDS011;5161;48.174;11.756;2023-02-18T00:00:53;3.60;;;3.30;;
10232;SDS011;5161;48.174;11.756;2023-02-18T00:03:18;3.33;;;3.13;;
10232;SDS011;5161;48.174;11.756;2023-02-18T00:05:44;4.23;;;3.60;;
10232;SDS011;5161;48.174;11.756;2023-02-18T00:08:09;3.87;;;3.40;;
10232;SDS011;5161;48.174;11.756;2023-02-18T00:10:35;3.50;;;3.20;;
10232;SDS011;5161;48.174;11.756;2023-02-18T00:13:01;3.70;;;3.40;;
10232;SDS011;5161;48.174;11.756;2023-02-18T00:15:26;3.50;;;3.20;;
10232;SDS011;5161;48.174;11.756;2023-02-18T00:17:52;3.70;;;3.50;;
10232;SDS011;5161;48.174;11.756;2023-02-18T00:20:18;4.00;;;3.70;;
10232;SDS011;5161;48.174;11.756;2023-02-18T00:22:43;3.60;;;3.30;;
10232;SDS011;5161;48.174;11.756;2023-02-18T00:25:09;3.70;;;3.40;;
10232;SDS011;5161;48.174;11.756;2023-02-18T00:27:35;3.67;;;3.37;;
10232;SDS011;5161;48.174;11.756;2023-02-18T00:30:00;3.80;;;3.23;;
10232;SDS011;5161;48.174;11.756;2023-02-18T00:32:27;3.67;;;3.37;;
10232;SDS011;5161;48.174;11.756;2023-02-18T00:34:53;3.83;;;3.43;;
10232;SDS011;5161;48.174;11.756;2023-02-18T00:37:19;4.47;;;3.40;;
10232;SDS011;5161;48.174;11.756;2023-02-18T00:39:45;3.37;;;3.07;;
10232;SDS011;5161;48.174;11.756;2023-02-18T00:42:10;3.43;;;3.20;;
10232;SDS011;5161;48.174;11.756;2023-02-18T00:44:36;3.10;;;2.90;;
10232;SDS011;5161;48.174;11.756;2023-02-18T00:47:05;3.20;;;3.00;;
10232;SDS011;5161;48.174;11.756;2023-02-18T00:49:31;3.57;;;3.20;;
10232;SDS011;5161;48.174;11.756;2023-02-18T00:51:57;3.43;;;3.23;;
10232;SDS011;5161;48.174;11.756;2023-02-18T00:54:22;4.43;;;2.90;;
10232;SDS011;5161;48.174;11.756;2023-02-18T00:56:48;3.30;;;3.00;;
10232;SDS011;5161;48.174;11.756;2023-02-18T00:59:13;3.23;;;3.00;;
10232;SDS011;5161;48.174;11.756;2023-02-18T01:01:39;2.90;;;2.70;;
10232;SDS011;5161;48.174;11.756;2023-02-18T01:04:05;3.20;;;3.00;;
10232;SDS011;5161;48.174;11.756;2023-02-18T01:06:30;3.20;;;3.00;;
10232;SDS011;5161;48.174;11.756;2023-02-18T01:08:56;3.50;;;2.93;;
10232;SDS011;5161;48.174;11.756;2023-02-18T01:11:22;3.00;;;2.80;;
10232;SDS011;5161;48.174;11.756;2023-02-18T01:13:49;2.80;;;2.60;;
10232;SDS011;5161;48.174;11.756;2023-02-18T01:16:14;3.10;;;2.80;;
10232;SDS011;5161;48.174;11.756;2023-02-18T01:18:40;3.63;;;3.00;;
10232;SDS011;5161;48.174;11.756;2023-02-18T01:21:09;3.30;;;3.10;;
10232;SDS011;5161;48.174;11.756;2023-02-18T01:23:38;3.37;;;2.90;;
10232;SDS011;5161;48.174;11.756;2023-02-18T01:26:04;3.17;;;2.97;;
10232;SDS011;5161;48.174;11.756;2023-02-18T01:28:30;3.30;;;3.00;;
10232;SDS011;5161;48.174;11.756;2023-02-18T01:30:56;3.00;;;2.80;;
10232;SDS011;5161;48.174;11.756;2023-02-18T01:33:22;3.07;;;2.87;;
10232;SDS011;5161;48.174;11.756;2023-02-18T01:35:48;2.77;;;2.60;;
10232;SDS011;5161;48.174;11.756;2023-02-18T01:38:14;3.00;;;2.80;;
10232;SDS011;5161;48.174;11.756;2023-02-18T01:40:44;3.00;;;2.80;;
10232;SDS011;5161;48.174;11.756;2023-02-18T01:43:13;2.77;;;2.67;;
10232;SDS011;5161;48.174;11.756;2023-02-18T01:45:46;2.60;;;2.50;;
10232;SDS011;5161;48.174;11.756;2023-02-18T01:51:19;2.87;;;2.73;;
10232;SDS011;5161;48.174;11.756;2023-02-18T01:54:03;3.30;;;2.93;;
10232;SDS011;5161;48.174;11.756;2023-02-18T01:59:40;3.30;;;3.10;;
10232;SDS011;5161;48.174;11.756;2023-02-18T02:02:16;3.93;;;3.00;;
10232;SDS011;5161;48.174;11.756;2023-02-18T02:04:50;3.40;;;3.10;;
10232;SDS011;5161;48.174;11.756;2023-02-18T02:07:17;3.67;;;3.23;;
10232;SDS011;5161;48.174;11.756;2023-02-18T02:09:45;3.50;;;3.20;;
10232;SDS011;5161;48.174;11.756;2023-02-18T02:12:29;3.67;;;3.23;;
10232;SDS011;5161;48.174;11.756;2023-02-18T02:27:04;4.20;;;3.80;;
10232;SDS011;5161;48.174;11.756;2023-02-18T02:35:30;4.10;;;3.70;;
10232;SDS011;5161;48.174;11.756;2023-02-18T02:38:03;5.47;;;3.30;;
10232;SDS011;5161;48.174;11.756;2023-02-18T02:40:42;3.87;;;3.57;;
10232;SDS011;5161;48.174;11.756;2023-02-18T02:46:11;4.10;;;3.80;;
10232;SDS011;5161;48.174;11.756;2023-02-18T02:48:46;3.63;;;3.30;;
10232;SDS011;5161;48.174;11.756;2023-02-18T02:51:20;3.67;;;3.37;;
10232;SDS011;5161;48.174;11.756;2023-02-18T02:53:51;3.30;;;3.00;;
10232;SDS011;5161;48.174;11.756;2023-02-18T02:56:22;3.10;;;2.90;;
10232;SDS011;5161;48.174;11.756;2023-02-18T02:58:59;3.00;;;2.77;;
10232;SDS011;5161;48.174;11.756;2023-02-18T03:04:38;3.20;;;2.90;;
10232;SDS011;5161;48.174;11.756;2023-02-18T03:07:33;3.00;;;2.80;;
10232;SDS011;5161;48.174;11.756;2023-02-18T03:13:28;2.97;;;2.77;;
10232;SDS011;5161;48.174;11.756;2023-02-18T03:18:53;2.60;;;2.40;;
10232;SDS011;5161;48.174;11.756;2023-02-18T03:21:43;2.90;;;2.70;;
10232;SDS011;5161;48.174;11.756;2023-02-18T03:24:18;2.70;;;2.60;;
10232;SDS011;5161;48.174;11.756;2023-02-18T03:26:51;2.83;;;2.60;;
10232;SDS011;5161;48.174;11.756;2023-02-18T03:29:20;2.67;;;2.47;;
10232;SDS011;5161;48.174;11.756;2023-02-18T03:31:48;2.60;;;2.40;;
10232;SDS011;5161;48.174;11.756;2023-02-18T03:34:22;2.60;;;2.40;;
10232;SDS011;5161;48.174;11.756;2023-02-18T03:36:57;2.47;;;2.37;;
10232;SDS011;5161;48.174;11.756;2023-02-18T03:39:25;2.60;;;2.50;;
10232;SDS011;5161;48.174;11.756;2023-02-18T03:41:53;2.27;;;2.10;;
10232;SDS011;5161;48.174;11.756;2023-02-18T03:44:19;2.70;;;2.50;;
10232;SDS011;5161;48.174;11.756;2023-02-18T03:46:44;2.60;;;2.40;;
10232;SDS011;5161;48.174;11.756;2023-02-18T03:49:10;2.20;;;2.10;;
10232;SDS011;5161;48.174;11.756;2023-02-18T03:51:37;2.33;;;2.07;;
10232;SDS011;5161;48.174;11.756;2023-02-18T03:54:03;2.27;;;2.17;;
10232;SDS011;5161;48.174;11.756;2023-02-18T03:56:28;2.30;;;2.20;;
10232;SDS011;5161;48.174;11.756;2023-02-18T03:58:54;2.10;;;2.00;;
10232;SDS011;5161;48.174;11.756;2023-02-18T04:01:20;2.20;;;2.10;;
10232;SDS011;5161;48.174;11.756;2023-02-18T04:03:46;2.20;;;2.10;;
10232;SDS011;5161;48.174;11.756;2023-02-18T04:06:12;2.30;;;2.20;;
10232;SDS011;5161;48.174;11.756;2023-02-18T04:08:37;2.17;;;2.07;;
10232;SDS011;5161;48.174;11.756;2023-02-18T04:11:03;2.40;;;2.10;;
10232;SDS011;5161;48.174;11.756;2023-02-18T04:13:29;2.57;;;2.47;;
10232;SDS011;5161;48.174;11.756;2023-02-18T04:15:55;2.50;;;2.40;;
10232;SDS011;5161;48.174;11.756;2023-02-18T04:18:21;2.70;;;2.20;;
10232;SDS011;5161;48.174;11.756;2023-02-18T04:20:48;2.33;;;2.20;;
10232;SDS011;5161;48.174;11.756;2023-02-18T04:23:14;2.50;;;2.40;;
10232;SDS011;5161;48.174;11.756;2023-02-18T04:25:40;2.53;;;2.30;;
10232;SDS011;5161;48.174;11.756;2023-02-18T04:28:05;2.10;;;2.00;;
10232;SDS011;5161;48.174;11.756;2023-02-18T04:30:31;2.50;;;2.40;;
10232;SDS011;5161;48.174;11.756;2023-02-18T04:32:57;2.60;;;2.40;;
10232;SDS011;5161;48.174;11.756;2023-02-18T04:35:23;2.30;;;2.20;;
10232;SDS011;5161;48.174;11.756;2023-02-18T04:37:54;2.20;;;2.10;;
10232;SDS011;5161;48.174;11.756;2023-02-18T04:40:20;2.37;;;2.27;;
10232;SDS011;5161;48.174;11.756;2023-02-18T04:42:45;2.60;;;2.40;;
10232;SDS011;5161;48.174;11.756;2023-02-18T04:45:11;2.33;;;2.23;;
10232;SDS011;5161;48.174;11.756;2023-02-18T04:47:37;2.40;;;2.30;;
10232;SDS011;5161;48.174;11.756;2023-02-18T04:50:03;2.30;;;2.20;;
10232;SDS011;5161;48.174;11.756;2023-02-18T04:52:29;2.40;;;2.30;;
10232;SDS011;5161;48.174;11.756;2023-02-18T04:54:55;2.50;;;2.40;;
10232;SDS011;5161;48.174;11.756;2023-02-18T04:57:20;2.50;;;2.40;;
10232;SDS011;5161;48.174;11.756;2023-02-18T04:59:46;2.53;;;2.43;;
10232;SDS011;5161;48.174;11.756;2023-02-18T05:02:12;2.50;;;2.37;;
10232;SDS011;5161;48.174;11.756;2023-02-18T05:04:38;2.37;;;2.27;;
10232;SDS011;5161;48.174;11.756;2023-02-18T05:07:04;2.43;;;2.33;;
10232;SDS011;5161;48.174;11.756;2023-02-18T05:09:29;2.40;;;2.30;;
10232;SDS011;5161;48.174;11.756;2023-02-18T05:11:55;2.50;;;2.40;;
10232;SDS011;5161;48.174;11.756;2023-02-18T05:14:21;2.30;;;2.20;;
10232;SDS011;5161;48.174;11.756;2023-02-18T05:16:46;2.50;;;2.40;;
10232;SDS011;5161;48.174;11.756;2023-02-18T05:19:15;2.50;;;2.40;;
10232;SDS011;5161;48.174;11.756;2023-02-18T05:21:41;2.40;;;2.30;;
10232;SDS011;5161;48.174;11.756;2023-02-18T05:24:07;2.40;;;2.20;;
10232;SDS011;5161;48.174;11.756;2023-02-18T05:26:33;2.60;;;2.50;;
10232;SDS011;5161;48.174;11.756;2023-02-18T05:28:59;2.50;;;2.40;;
10232;SDS011;5161;48.174;11.756;2023-02-18T05:31:24;2.40;;;2.30;;
10232;SDS011;5161;48.174;11.756;2023-02-18T05:33:51;2.50;;;2.40;;
10232;SDS011;5161;48.174;11.756;2023-02-18T05:36:16;2.53;;;2.43;;
10232;SDS011;5161;48.174;11.756;2023-02-18T05:38:42;2.20;;;2.10;;
10232;SDS011;5161;48.174;11.756;2023-02-18T05:41:08;2.80;;;2.60;;
10232;SDS011;5161;48.174;11.756;2023-02-18T05:43:33;2.50;;;2.30;;
10232;SDS011;5161;48.174;11.756;2023-02-18T05:46:17;2.20;;;2.10;;
10232;SDS011;5161;48.174;11.756;2023-02-18T05:48:43;2.40;;;2.20;;
10232;SDS011;5161;48.174;11.756;2023-02-18T05:51:08;2.00;;;1.90;;
10232;SDS011;5161;48.174;11.756;2023-02-18T05:53:34;1.93;;;1.90;;
10232;SDS011;5161;48.174;11.756;2023-02-18T05:55:59;2.07;;;1.93;;
10232;SDS011;5161;48.174;11.756;2023-02-18T05:58:25;2.03;;;1.80;;
10232;SDS011;5161;48.174;11.756;2023-02-18T06:00:51;1.80;;;1.73;;
10232;SDS011;5161;48.174;11.756;2023-02-18T06:03:16;1.80;;;1.70;;
10232;SDS011;5161;48.174;11.756;2023-02-18T06:05:42;2.00;;;1.60;;
10232;SDS011;5161;48.174;11.756;2023-02-18T06:08:07;1.50;;;1.50;;
10232;SDS011;5161;48.174;11.756;2023-02-18T06:10:33;1.63;;;1.53;;
10232;SDS011;5161;48.174;11.756;2023-02-18T06:12:58;1.57;;;1.57;;
10232;SDS011;5161;48.174;11.756;2023-02-18T06:15:26;1.70;;;1.60;;
10232;SDS011;5161;48.174;11.756;2023-02-18T06:17:51;1.50;;;1.50;;
10232;SDS011;5161;48.174;11.756;2023-02-18T06:20:17;1.43;;;1.43;;
10232;SDS011;5161;48.174;11.756;2023-02-18T06:22:43;1.40;;;1.40;;
10232;SDS011;5161;48.174;11.756;2023-02-18T06:25:08;1.40;;;1.40;;
10232;SDS011;5161;48.174;11.756;2023-02-18T06:27:34;1.33;;;1.33;;
10232;SDS011;5161;48.174;11.756;2023-02-18T06:29:59;1.20;;;1.20;;
10232;SDS011;5161;48.174;11.756;2023-02-18T06:32:25;1.40;;;1.40;;
10232;SDS011;5161;48.174;11.756;2023-02-18T06:34:50;1.60;;;1.37;;
10232;SDS011;5161;48.174;11.756;2023-02-18T06:37:16;1.50;;;1.40;;
10232;SDS011;5161;48.174;11.756;2023-02-18T06:39:45;1.37;;;1.37;;
10232;SDS011;5161;48.174;11.756;2023-02-18T06:42:10;1.30;;;1.30;;
10232;SDS011;5161;48.174;11.756;2023-02-18T06:44:36;6.57;;;1.40;;
10232;SDS011;5161;48.174;11.756;2023-02-18T06:47:01;1.23;;;1.23;;
10232;SDS011;5161;48.174;11.756;2023-02-18T06:49:27;1.43;;;1.43;;
10232;SDS011;5161;48.174;11.756;2023-02-18T06:51:54;1.20;;;1.20;;
10232;SDS011;5161;48.174;11.756;2023-02-18T06:54:19;1.40;;;1.40;;
10232;SDS011;5161;48.174;11.756;2023-02-18T06:56:45;1.30;;;1.30;;
10232;SDS011;5161;48.174;11.756;2023-02-18T06:59:11;1.10;;;1.10;;
10232;SDS011;5161;48.174;11.756;2023-02-18T07:01:36;1.10;;;1.10;;
10232;SDS011;5161;48.174;11.756;2023-02-18T07:04:02;1.20;;;1.20;;
10232;SDS011;5161;48.174;11.756;2023-02-18T07:06:28;1.20;;;1.20;;
10232;SDS011;5161;48.174;11.756;2023-02-18T07:08:54;2.10;;;1.20;;
10232;SDS011;5161;48.174;11.756;2023-02-18T07:11:20;1.10;;;1.10;;
10232;SDS011;5161;48.174;11.756;2023-02-18T07:13:45;1.20;;;1.20;;
10232;SDS011;5161;48.174;11.756;2023-02-18T07:16:11;1.70;;;1.10;;
10232;SDS011;5161;48.174;11.756;2023-02-18T07:18:36;1.10;;;1.10;;
10232;SDS011;5161;48.174;11.756;2023-02-18T07:21:02;1.20;;;1.20;;
10232;SDS011;5161;48.174;11.756;2023-02-18T07:23:27;1.33;;;1.10;;
10232;SDS011;5161;48.174;11.756;2023-02-18T07:26:01;1.10;;;1.10;;
10232;SDS011;5161;48.174;11.756;2023-02-18T07:28:28;1.20;;;1.20;;
10232;SDS011;5161;48.174;11.756;2023-02-18T07:30:53;1.10;;;1.10;;
10232;SDS011;5161;48.174;11.756;2023-02-18T07:33:19;1.00;;;1.00;;
10232;SDS011;5161;48.174;11.756;2023-02-18T07:35:44;1.23;;;1.10;;
10232;SDS011;5161;48.174;11.756;2023-02-18T07:38:10;1.00;;;1.00;;
10232;SDS011;5161;48.174;11.756;2023-02-18T07:40:35;1.10;;;1.10;;
10232;SDS011;5161;48.174;11.756;2023-02-18T07:43:01;1.00;;;1.00;;
10232;SDS011;5161;48.174;11.756;2023-02-18T07:45:26;1.00;;;1.00;;
10232;SDS011;5161;48.174;11.756;2023-02-18T07:47:52;1.20;;;1.10;;
10232;SDS011;5161;48.174;11.756;2023-02-18T07:50:17;1.13;;;1.10;;
10232;SDS011;5161;48.174;11.756;2023-02-18T07:52:46;1.13;;;1.10;;
10232;SDS011;5161;48.174;11.756;2023-02-18T07:55:11;1.37;;;1.00;;
10232;SDS011;5161;48.174;11.756;2023-02-18T07:57:42;1.27;;;1.10;;
10232;SDS011;5161;48.174;11.756;2023-02-18T08:00:24;1.07;;;1.07;;
10232;SDS011;5161;48.174;11.756;2023-02-18T08:03:01;1.10;;;1.10;;
10232;SDS011;5161;48.174;11.756;2023-02-18T08:05:27;1.17;;;1.17;;
10232;SDS011;5161;48.174;11.756;2023-02-18T08:07:52;1.00;;;1.00;;
10232;SDS011;5161;48.174;11.756;2023-02-18T08:10:21;1.40;;;1.40;;
10232;SDS011;5161;48.174;11.756;2023-02-18T08:12:47;1.20;;;1.20;;
10232;SDS011;5161;48.174;11.756;2023-02-18T08:15:16;1.93;;;1.20;;
10232;SDS011;5161;48.174;11.756;2023-02-18T08:17:47;1.20;;;1.20;;
10232;SDS011;5161;48.174;11.756;2023-02-18T08:20:16;1.50;;;1.50;;
10232;SDS011;5161;48.174;11.756;2023-02-18T08:22:44;2.00;;;1.60;;
10232;SDS011;5161;48.174;11.756;2023-02-18T08:25:10;1.50;;;1.40;;
10232;SDS011;5161;48.174;11.756;2023-02-18T08:27:36;1.57;;;1.47;;
10232;SDS011;5161;48.174;11.756;2023-02-18T08:30:02;1.60;;;1.50;;
10232;SDS011;5161;48.174;11.756;2023-02-18T08:32:28;1.37;;;1.37;;
10232;SDS011;5161;48.174;11.756;2023-02-18T08:34:56;1.20;;;1.20;;
10232;SDS011;5161;48.174;11.756;2023-02-18T08:37:21;1.70;;;1.20;;
10232;SDS011;5161;48.174;11.756;2023-02-18T08:39:48;1.00;;;1.00;;
10232;SDS011;5161;48.174;11.756;2023-02-18T08:42:14;1.40;;;1.30;;
10232;SDS011;5161;48.174;11.756;2023-02-18T08:44:39;2.30;;;1.03;;
10232;SDS011;5161;48.174;11.756;2023-02-18T08:47:07;1.20;;;1.20;;
10232;SDS011;5161;48.174;11.756;2023-02-18T08:49:33;1.30;;;1.13;;
10232;SDS011;5161;48.174;11.756;2023-02-18T08:52:01;1.40;;;1.30;;
10232;SDS011;5161;48.174;11.756;2023-02-18T08:54:27;2.27;;;1.10;;
10232;SDS011;5161;48.174;11.756;2023-02-18T08:56:53;1.30;;;1.30;;
10232;SDS011;5161;48.174;11.756;2023-02-18T08:59:21;1.33;;;1.33;;
10232;SDS011;5161;48.174;11.756;2023-02-18T09:01:48;1.30;;;1.30;;
10232;SDS011;5161;48.174;11.756;2023-02-18T09:04:16;1.47;;;1.40;;
10232;SDS011;5161;48.174;11.756;2023-02-18T09:06:45;2.60;;;2.43;;
10232;SDS011;5161;48.174;11.756;2023-02-18T09:09:23;3.10;;;2.90;;
10232;SDS011;5161;48.174;11.756;2023-02-18T09:12:16;3.30;;;2.03;;
10232;SDS011;5161;48.174;11.756;2023-02-18T09:14:44;1.50;;;1.40;;
10232;SDS011;5161;48.174;11.756;2023-02-18T09:17:12;1.20;;;1.20;;
10232;SDS011;5161;48.174;11.756;2023-02-18T09:19:48;1.70;;;1.60;;
10232;SDS011;5161;48.174;11.756;2023-02-18T09:22:22;1.63;;;1.53;;
10232;SDS011;5161;48.174;11.756;2023-02-18T09:24:48;2.93;;;1.60;;
10232;SDS011;5161;48.174;11.756;2023-02-18T09:27:14;2.33;;;1.60;;
10232;SDS011;5161;48.174;11.756;2023-02-18T09:29:40;1.50;;;1.50;;
10232;SDS011;5161;48.174;11.756;2023-02-18T09:32:06;1.77;;;1.67;;
10232;SDS011;5161;48.174;11.756;2023-02-18T09:34:33;1.70;;;1.57;;
10232;SDS011;5161;48.174;11.756;2023-02-18T09:37:01;1.73;;;1.63;;
10232;SDS011;5161;48.174;11.756;2023-02-18T09:39:28;5.03;;;1.70;;
10232;SDS011;5161;48.174;11.756;2023-02-18T09:42:01;1.67;;;1.50;;
10232;SDS011;5161;48.174;11.756;2023-02-18T09:44:34;1.70;;;1.70;;
10232;SDS011;5161;48.174;11.756;2023-02-18T09:47:17;2.00;;;1.80;;
10232;SDS011;5161;48.174;11.756;2023-02-18T09:49:57;2.77;;;1.70;;
10232;SDS011;5161;48.174;11.756;2023-02-18T09:52:28;1.80;;;1.70;;
10232;SDS011;5161;48.174;11.756;2023-02-18T09:54:56;2.53;;;1.50;;
10232;SDS011;5161;48.174;11.756;2023-02-18T09:59:53;2.50;;;1.57;;
10232;SDS011;5161;48.174;11.756;2023-02-18T10:02:31;1.63;;;1.60;;
10232;SDS011;5161;48.174;11.756;2023-02-18T10:04:58;3.20;;;1.60;;
10232;SDS011;5161;48.174;11.756;2023-02-18T10:07:25;1.60;;;1.50;;
10232;SDS011;5161;48.174;11.756;2023-02-18T10:09:56;3.23;;;1.60;;
10232;SDS011;5161;48.174;11.756;2023-02-18T10:12:26;1.80;;;1.70;;
10232;SDS011;5161;48.174;11.756;2023-02-18T10:14:55;2.10;;;1.50;;
10232;SDS011;5161;48.174;11.756;2023-02-18T10:17:25;4.30;;;1.50;;
10232;SDS011;5161;48.174;11.756;2023-02-18T10:19:54;1.87;;;1.77;;
10232;SDS011;5161;48.174;11.756;2023-02-18T10:22:21;1.90;;;1.73;;
10232;SDS011;5161;48.174;11.756;2023-02-18T10:24:50;1.80;;;1.70;;
10232;SDS011;5161;48.174;11.756;2023-02-18T10:27:18;3.37;;;2.60;;
10232;SDS011;5161;48.174;11.756;2023-02-18T10:29:49;1.90;;;1.80;;
10232;SDS011;5161;48.174;11.756;2023-02-18T10:32:18;3.73;;;1.40;;
10232;SDS011;5161;48.174;11.756;2023-02-18T10:34:53;1.43;;;1.43;;
10232;SDS011;5161;48.174;11.756;2023-02-18T10:37:57;1.70;;;1.60;;
10232;SDS011;5161;48.174;11.756;2023-02-18T10:49:08;2.77;;;2.57;;
10232;SDS011;5161;48.174;11.756;2023-02-18T10:51:55;2.93;;;2.73;;
10232;SDS011;5161;48.174;11.756;2023-02-18T10:54:26;2.40;;;2.20;;
10232;SDS011;5161;48.174;11.756;2023-02-18T10:57:21;2.10;;;2.00;;
10232;SDS011;5161;48.174;11.756;2023-02-18T11:00:33;2.90;;;2.53;;
10232;SDS011;5161;48.174;11.756;2023-02-18T11:02:36;2.83;;;2.70;;
10232;SDS011;5161;48.174;11.756;2023-02-18T11:05:22;2.03;;;1.70;;
10232;SDS011;5161;48.174;11.756;2023-02-18T11:07:51;3.00;;;2.60;;
10232;SDS011;5161;48.174;11.756;2023-02-18T11:10:21;2.17;;;1.70;;
10232;SDS011;5161;48.174;11.756;2023-02-18T11:12:59;3.60;;;2.00;;
10232;SDS011;5161;48.174;11.756;2023-02-18T11:15:26;2.33;;;2.23;;
10232;SDS011;5161;48.174;11.756;2023-02-18T11:17:54;2.30;;;2.20;;
10232;SDS011;5161;48.174;11.756;2023-02-18T11:20:25;2.10;;;2.00;;
10232;SDS011;5161;48.174;11.756;2023-02-18T11:23:19;1.70;;;1.60;;
10232;SDS011;5161;48.174;11.756;2023-02-18T11:30:53;1.70;;;1.60;;
10232;SDS011;5161;48.174;11.756;2023-02-18T11:39:05;2.13;;;1.70;;
10232;SDS011;5161;48.174;11.756;2023-02-18T11:41:57;2.20;;;1.70;;
10232;SDS011;5161;48.174;11.756;2023-02-18T11:47:23;1.73;;;1.47;;
10232;SDS011;5161;48.174;11.756;2023-02-18T11:52:38;2.70;;;1.30;;
10232;SDS011;5161;48.174;11.756;2023-02-18T11:55:07;1.27;;;1.27;;
10232;SDS011;5161;48.174;11.756;2023-02-18T11:57:43;2.13;;;1.60;;
10232;SDS011;5161;48.174;11.756;2023-02-18T12:05:43;3.80;;;1.23;;
10232;SDS011;5161;48.174;11.756;2023-02-18T12:08:16;1.20;;;1.20;;
10232;SDS011;5161;48.174;11.756;2023-02-18T12:10:46;1.70;;;1.60;;
10232;SDS011;5161;48.174;11.756;2023-02-18T12:13:34;1.67;;;1.50;;
10232;SDS011;5161;48.174;11.756;2023-02-18T12:27:00;10.03;;;1.53;;
10232;SDS011;5161;48.174;11.756;2023-02-18T12:32:44;2.10;;;1.53;;
10232;SDS011;5161;48.174;11.756;2023-02-18T12:35:36;1.60;;;1.50;;
10232;SDS011;5161;48.174;11.756;2023-02-18T12:44:16;3.50;;;1.67;;
10232;SDS011;5161;48.174;11.756;2023-02-18T12:47:09;1.30;;;1.20;;
10232;SDS011;5161;48.174;11.756;2023-02-18T12:50:12;4.07;;;1.97;;
10232;SDS011;5161;48.174;11.756;2023-02-18T12:55:56;2.03;;;1.50;;
10232;SDS011;5161;48.174;11.756;2023-02-18T13:01:38;2.87;;;1.63;;
10232;SDS011;5161;48.174;11.756;2023-02-18T13:06:57;1.30;;;1.23;;
10232;SDS011;5161;48.174;11.756;2023-02-18T13:09:57;2.30;;;1.20;;
10232;SDS011;5161;48.174;11.756;2023-02-18T13:18:24;1.30;;;1.30;;
10232;SDS011;5161;48.174;11.756;2023-02-18T13:20:59;3.13;;;1.40;;
10232;SDS011;5161;48.174;11.756;2023-02-18T13:23:33;1.40;;;1.30;;
10232;SDS011;5161;48.174;11.756;2023-02-18T13:26:03;1.53;;;1.50;;
10232;SDS011;5161;48.174;11.756;2023-02-18T13:28:34;2.87;;;1.70;;
10232;SDS011;5161;48.174;11.756;2023-02-18T13:31:03;1.80;;;1.70;;
10232;SDS011;5161;48.174;11.756;2023-02-18T13:33:52;2.07;;;1.50;;
10232;SDS011;5161;48.174;11.756;2023-02-18T13:39:21;1.63;;;1.57;;
10232;SDS011;5161;48.174;11.756;2023-02-18T13:41:48;1.40;;;1.40;;
10232;SDS011;5161;48.174;11.756;2023-02-18T13:46:47;1.60;;;1.50;;
10232;SDS011;5161;48.174;11.756;2023-02-18T13:49:19;2.63;;;1.60;;
10232;SDS011;5161;48.174;11.756;2023-02-18T13:51:51;1.83;;;1.80;;
10232;SDS011;5161;48.174;11.756;2023-02-18T13:55:01;1.97;;;1.70;;
10232;SDS011;5161;48.174;11.756;2023-02-18T13:57:13;2.53;;;1.60;;
10232;SDS011;5161;48.174;11.756;2023-02-18T13:59:44;1.60;;;1.60;;
10232;SDS011;5161;48.174;11.756;2023-02-18T14:23:10;1.57;;;1.47;;
10232;SDS011;5161;48.174;11.756;2023-02-18T14:25:40;2.00;;;1.80;;
10232;SDS011;5161;48.174;11.756;2023-02-18T14:33:31;2.47;;;1.67;;
10232;SDS011;5161;48.174;11.756;2023-02-18T14:47:28;1.30;;;1.30;;
10232;SDS011;5161;48.174;11.756;2023-02-18T14:49:58;1.97;;;1.60;;
10232;SDS011;5161;48.174;11.756;2023-02-18T14:54:55;1.77;;;1.67;;
10232;SDS011;5161;48.174;11.756;2023-02-18T14:57:26;1.60;;;1.60;;
10232;SDS011;5161;48.174;11.756;2023-02-18T15:00:04;2.37;;;2.00;;
10232;SDS011;5161;48.174;11.756;2023-02-18T15:02:33;1.83;;;1.80;;
10232;SDS011;5161;48.174;11.756;2023-02-18T15:08:03;1.90;;;1.60;;
10232;SDS011;5161;48.174;11.756;2023-02-18T15:13:30;1.60;;;1.60;;
10232;SDS011;5161;48.174;11.756;2023-02-18T15:16:08;1.70;;;1.60;;
10232;SDS011;5161;48.174;11.756;2023-02-18T15:18:41;1.50;;;1.50;;
10232;SDS011;5161;48.174;11.756;2023-02-18T15:21:18;1.60;;;1.50;;
10232;SDS011;5161;48.174;11.756;2023-02-18T15:23:48;2.93;;;1.70;;
10232;SDS011;5161;48.174;11.756;2023-02-18T15:26:15;1.80;;;1.70;;
10232;SDS011;5161;48.174;11.756;2023-02-18T15:28:49;1.67;;;1.60;;
10232;SDS011;5161;48.174;11.756;2023-02-18T15:31:38;2.47;;;1.50;;
10232;SDS011;5161;48.174;11.756;2023-02-18T15:36:53;1.70;;;1.60;;
10232;SDS011;5161;48.174;11.756;2023-02-18T15:39:23;1.40;;;1.40;;
10232;SDS011;5161;48.174;11.756;2023-02-18T15:41:56;1.93;;;1.53;;
10232;SDS011;5161;48.174;11.756;2023-02-18T15:44:25;1.53;;;1.53;;
10232;SDS011;5161;48.174;11.756;2023-02-18T15:46:54;1.50;;;1.50;;
10232;SDS011;5161;48.174;11.756;2023-02-18T15:49:23;1.40;;;1.40;;
10232;SDS011;5161;48.174;11.756;2023-02-18T15:51:49;1.50;;;1.47;;
10232;SDS011;5161;48.174;11.756;2023-02-18T15:54:21;2.50;;;1.43;;
10232;SDS011;5161;48.174;11.756;2023-02-18T15:56:51;1.60;;;1.50;;
10232;SDS011;5161;48.174;11.756;2023-02-18T16:01:52;1.37;;;1.27;;
10232;SDS011;5161;48.174;11.756;2023-02-18T16:04:20;4.30;;;1.30;;
10232;SDS011;5161;48.174;11.756;2023-02-18T16:06:49;1.83;;;1.37;;
10232;SDS011;5161;48.174;11.756;2023-02-18T16:11:55;1.57;;;1.57;;
10232;SDS011;5161;48.174;11.756;2023-02-18T16:14:27;2.40;;;1.50;;
10232;SDS011;5161;48.174;11.756;2023-02-18T16:17:04;1.47;;;1.47;;
10232;SDS011;5161;48.174;11.756;2023-02-18T16:19:32;1.73;;;1.63;;
10232;SDS011;5161;48.174;11.756;2023-02-18T16:22:02;1.90;;;1.60;;
10232;SDS011;5161;48.174;11.756;2023-02-18T16:24:37;1.90;;;1.80;;
10232;SDS011;5161;48.174;11.756;2023-02-18T16:27:05;4.50;;;4.20;;
10232;SDS011;5161;48.174;11.756;2023-02-18T16:29:42;1.83;;;1.73;;
10232;SDS011;5161;48.174;11.756;2023-02-18T16:32:08;1.50;;;1.50;;
10232;SDS011;5161;48.174;11.756;2023-02-18T16:34:34;1.90;;;1.80;;
10232;SDS011;5161;48.174;11.756;2023-02-18T16:37:00;1.90;;;1.80;;
10232;SDS011;5161;48.174;11.756;2023-02-18T16:39:44;1.70;;;1.70;;
10232;SDS011;5161;48.174;11.756;2023-02-18T16:42:10;2.03;;;1.90;;
10232;SDS011;5161;48.174;11.756;2023-02-18T16:44:37;1.70;;;1.70;;
10232;SDS011;5161;48.174;11.756;2023-02-18T16:47:03;1.80;;;1.70;;
10232;SDS011;5161;48.174;11.756;2023-02-18T16:49:29;2.00;;;1.90;;
10232;SDS011;5161;48.174;11.756;2023-02-18T16:51:54;1.70;;;1.70;;
10232;SDS011;5161;48.174;11.756;2023-02-18T16:54:20;1.90;;;1.80;;
10232;SDS011;5161;48.174;11.756;2023-02-18T16:56:46;1.90;;;1.80;;
10232;SDS011;5161;48.174;11.756;2023-02-18T16:59:12;2.00;;;1.90;;
10232;SDS011;5161;48.174;11.756;2023-02-18T17:01:39;2.17;;;1.77;;
10232;SDS011;5161;48.174;11.756;2023-02-18T17:04:12;3.43;;;2.10;;
10232;SDS011;5161;48.174;11.756;2023-02-18T17:06:39;2.27;;;2.17;;
10232;SDS011;5161;48.174;11.756;2023-02-18T17:09:26;1.80;;;1.80;;
10232;SDS011;5161;48.174;11.756;2023-02-18T17:11:53;2.00;;;1.90;;
10232;SDS011;5161;48.174;11.756;2023-02-18T17:14:20;1.90;;;1.80;;
10232;SDS011;5161;48.174;11.756;2023-02-18T17:16:47;2.10;;;2.00;;
10232;SDS011;5161;48.174;11.756;2023-02-18T17:19:16;2.23;;;2.13;;
10232;SDS011;5161;48.174;11.756;2023-02-18T17:21:41;2.03;;;1.93;;
10232;SDS011;5161;48.174;11.756;2023-02-18T17:24:11;2.13;;;1.93;;
10232;SDS011;5161;48.174;11.756;2023-02-18T17:26:37;2.10;;;2.00;;
10232;SDS011;5161;48.174;11.756;2023-02-18T17:29:03;2.10;;;2.00;;
10232;SDS011;5161;48.174;11.756;2023-02-18T17:31:30;2.20;;;2.10;;
10232;SDS011;5161;48.174;11.756;2023-02-18T17:34:00;2.37;;;2.27;;
10232;SDS011;5161;48.174;11.756;2023-02-18T17:36:28;2.60;;;2.47;;
10232;SDS011;5161;48.174;11.756;2023-02-18T17:38:54;2.07;;;1.97;;
10232;SDS011;5161;48.174;11.756;2023-02-18T17:41:21;1.93;;;1.83;;
10232;SDS011;5161;48.174;11.756;2023-02-18T17:43:47;2.00;;;1.90;;
10232;SDS011;5161;48.174;11.756;2023-02-18T17:46:13;1.93;;;1.80;;